sensor_id;sensor_type;location;lat;lon;timestamp;P1;durP1;ratioP1;P2;durP2;ratioP2
17670;SDS011;8954;48.694;8.940;2023-03-11T08:43:01;0.00;;;0.00;;
17670;SDS011;8954;48.694;8.940;2023-03-11T08:45:27;0.00;;;0.00;;
17670;SDS011;8954;48.694;8.940;2023-03-11T08:47:52;0.00;;;0.00;;
17670;SDS011;8954;48.694;8.940;2023-03-11T08:50:18;0.00;;;0.00;;
17670;SDS011;8954;48.694;8.940;2023-03-11T08:52:44;0.00;;;0.00;;
17670;SDS011;8954;48.694;8.940;2023-03-11T08:55:14;0.00;;;0.00;;
17670;SDS011;8954;48.694;8.940;2023-03-11T08:57:42;0.00;;;0.00;;
17670;SDS011;8954;48.694;8.940;2023-03-11T09:00:08;0.00;;;0.00;;
17670;SDS011;8954;48.694;8.940;2023-03-11T09:02:36;0.00;;;0.00;;
17670;SDS011;8954;48.694;8.940;2023-03-11T09:05:02;0.00;;;0.00;;
17670;SDS011;8954;48.694;8.940;2023-03-11T09:07:28;0.00;;;0.00;;
17670;SDS011;8954;48.694;8.940;2023-03-11T09:09:53;0.00;;;0.00;;
17670;SDS011;8954;48.694;8.940;2023-03-11T09:12:19;0.00;;;0.00;;
17670;SDS011;8954;48.694;8.940;2023-03-11T09:14:45;0.00;;;0.00;;
17670;SDS011;8954;48.694;8.940;2023-03-11T09:17:10;0.00;;;0.00;;
17670;SDS011;8954;48.694;8.940;2023-03-11T09:19:36;0.00;;;0.00;;
17670;SDS011;8954;48.694;8.940;2023-03-11T09:22:02;0.00;;;0.00;;
17670;SDS011;8954;48.694;8.940;2023-03-11T09:24:28;0.00;;;0.00;;
17670;SDS011;8954;48.694;8.940;2023-03-11T09:26:57;0.00;;;0.00;;
17670;SDS011;8954;48.694;8.940;2023-03-11T09:29:22;0.00;;;0.00;;
17670;SDS011;8954;48.694;8.940;2023-03-11T09:31:48;0.00;;;0.00;;
17670;SDS011;8954;48.694;8.940;2023-03-11T09:34:13;0.00;;;0.00;;
17670;SDS011;8954;48.694;8.940;2023-03-11T09:36:40;0.00;;;0.00;;
17670;SDS011;8954;48.694;8.940;2023-03-11T09:39:06;0.00;;;0.00;;
17670;SDS011;8954;48.694;8.940;2023-03-11T09:44:23;0.00;;;0.00;;
17670;SDS011;8954;48.694;8.940;2023-03-11T09:50:02;0.00;;;0.00;;
17670;SDS011;8954;48.694;8.940;2023-03-11T09:52:39;0.00;;;0.00;;
17670;SDS011;8954;48.694;8.940;2023-03-11T09:57:53;0.00;;;0.00;;
17670;SDS011;8954;48.694;8.940;2023-03-11T10:00:21;0.00;;;0.00;;
17670;SDS011;8954;48.694;8.940;2023-03-11T10:02:48;0.00;;;0.00;;
17670;SDS011;8954;48.694;8.940;2023-03-11T10:05:26;0.00;;;0.00;;
17670;SDS011;8954;48.694;8.940;2023-03-11T10:08:01;0.00;;;0.00;;
17670;SDS011;8954;48.694;8.940;2023-03-11T10:10:38;0.00;;;0.00;;
17670;SDS011;8954;48.694;8.940;2023-03-11T10:13:18;0.00;;;0.00;;
17670;SDS011;8954;48.694;8.940;2023-03-11T10:19:07;0.00;;;0.00;;
17670;SDS011;8954;48.694;8.940;2023-03-11T10:25:12;0.00;;;0.00;;
17670;SDS011;8954;48.694;8.940;2023-03-11T10:27:17;0.00;;;0.00;;
17670;SDS011;8954;48.694;8.940;2023-03-11T10:29:52;0.00;;;0.00;;
17670;SDS011;8954;48.694;8.940;2023-03-11T10:32:41;0.00;;;0.00;;
17670;SDS011;8954;48.694;8.940;2023-03-11T10:35:16;0.00;;;0.00;;
17670;SDS011;8954;48.694;8.940;2023-03-11T10:37:47;0.00;;;0.00;;
17670;SDS011;8954;48.694;8.940;2023-03-11T10:40:31;0.00;;;0.00;;
17670;SDS011;8954;48.694;8.940;2023-03-11T10:43:03;0.00;;;0.00;;
17670;SDS011;8954;48.694;8.940;2023-03-11T10:45:37;0.00;;;0.00;;
17670;SDS011;8954;48.694;8.940;2023-03-11T10:48:12;0.00;;;0.00;;
17670;SDS011;8954;48.694;8.940;2023-03-11T10:50:50;0.00;;;0.00;;
17670;SDS011;8954;48.694;8.940;2023-03-11T10:53:21;0.00;;;0.00;;
17670;SDS011;8954;48.694;8.940;2023-03-11T10:55:48;0.00;;;0.00;;
17670;SDS011;8954;48.694;8.940;2023-03-11T10:58:17;0.00;;;0.00;;
17670;SDS011;8954;48.694;8.940;2023-03-11T11:01:05;0.00;;;0.00;;
17670;SDS011;8954;48.694;8.940;2023-03-11T11:03:42;0.00;;;0.00;;
17670;SDS011;8954;48.694;8.940;2023-03-11T11:09:05;0.00;;;0.00;;
17670;SDS011;8954;48.694;8.940;2023-03-11T11:11:38;0.00;;;0.00;;
17670;SDS011;8954;48.694;8.940;2023-03-11T11:14:04;0.00;;;0.00;;
17670;SDS011;8954;48.694;8.940;2023-03-11T11:16:30;0.00;;;0.00;;
17670;SDS011;8954;48.694;8.940;2023-03-11T11:19:07;0.00;;;0.00;;
17670;SDS011;8954;48.694;8.940;2023-03-11T11:21:36;0.00;;;0.00;;
17670;SDS011;8954;48.694;8.940;2023-03-11T11:24:04;0.00;;;0.00;;
17670;SDS011;8954;48.694;8.940;2023-03-11T11:29:46;0.00;;;0.00;;
17670;SDS011;8954;48.694;8.940;2023-03-11T11:32:26;0.10;;;0.10;;
17670;SDS011;8954;48.694;8.940;2023-03-11T11:34:53;0.00;;;0.00;;
17670;SDS011;8954;48.694;8.940;2023-03-11T11:37:35;0.00;;;0.00;;
17670;SDS011;8954;48.694;8.940;2023-03-11T11:40:05;0.00;;;0.00;;
17670;SDS011;8954;48.694;8.940;2023-03-11T11:42:49;0.00;;;0.00;;
17670;SDS011;8954;48.694;8.940;2023-03-11T11:48:25;0.00;;;0.00;;
17670;SDS011;8954;48.694;8.940;2023-03-11T11:50:51;0.00;;;0.00;;
17670;SDS011;8954;48.694;8.940;2023-03-11T11:56:42;0.00;;;0.00;;
17670;SDS011;8954;48.694;8.940;2023-03-11T11:59:16;0.00;;;0.00;;
17670;SDS011;8954;48.694;8.940;2023-03-11T12:01:57;0.00;;;0.00;;
17670;SDS011;8954;48.694;8.940;2023-03-11T12:04:50;0.00;;;0.00;;
17670;SDS011;8954;48.694;8.940;2023-03-11T12:10:52;0.00;;;0.00;;
17670;SDS011;8954;48.694;8.940;2023-03-11T12:16:32;0.00;;;0.00;;
17670;SDS011;8954;48.694;8.940;2023-03-11T12:27:32;0.00;;;0.00;;
17670;SDS011;8954;48.694;8.940;2023-03-11T12:30:10;0.00;;;0.00;;
17670;SDS011;8954;48.694;8.940;2023-03-11T12:32:42;0.00;;;0.00;;
17670;SDS011;8954;48.694;8.940;2023-03-11T12:37:55;0.00;;;0.00;;
17670;SDS011;8954;48.694;8.940;2023-03-11T12:45:55;0.00;;;0.00;;
17670;SDS011;8954;48.694;8.940;2023-03-11T12:53:50;0.00;;;0.00;;
17670;SDS011;8954;48.694;8.940;2023-03-11T12:56:31;0.00;;;0.00;;
17670;SDS011;8954;48.694;8.940;2023-03-11T13:02:22;0.00;;;0.00;;
17670;SDS011;8954;48.694;8.940;2023-03-11T13:13:20;0.00;;;0.00;;
17670;SDS011;8954;48.694;8.940;2023-03-11T13:15:47;0.00;;;0.00;;
17670;SDS011;8954;48.694;8.940;2023-03-11T13:18:18;0.00;;;0.00;;
17670;SDS011;8954;48.694;8.940;2023-03-11T13:23:27;0.00;;;0.00;;
17670;SDS011;8954;48.694;8.940;2023-03-11T13:31:35;0.00;;;0.00;;
17670;SDS011;8954;48.694;8.940;2023-03-11T13:42:07;0.00;;;0.00;;
17670;SDS011;8954;48.694;8.940;2023-03-11T13:44:40;0.00;;;0.00;;
17670;SDS011;8954;48.694;8.940;2023-03-11T13:47:14;0.00;;;0.00;;
17670;SDS011;8954;48.694;8.940;2023-03-11T13:52:26;0.00;;;0.00;;
17670;SDS011;8954;48.694;8.940;2023-03-11T13:55:06;0.00;;;0.00;;
17670;SDS011;8954;48.694;8.940;2023-03-11T13:57:39;0.00;;;0.00;;
17670;SDS011;8954;48.694;8.940;2023-03-11T14:00:15;0.00;;;0.00;;
17670;SDS011;8954;48.694;8.940;2023-03-11T14:02:55;0.00;;;0.00;;
17670;SDS011;8954;48.694;8.940;2023-03-11T14:05:25;0.00;;;0.00;;
17670;SDS011;8954;48.694;8.940;2023-03-11T14:07:54;0.00;;;0.00;;
17670;SDS011;8954;48.694;8.940;2023-03-11T14:13:10;0.00;;;0.00;;
17670;SDS011;8954;48.694;8.940;2023-03-11T14:15:45;0.00;;;0.00;;
17670;SDS011;8954;48.694;8.940;2023-03-11T14:18:29;0.00;;;0.00;;
17670;SDS011;8954;48.694;8.940;2023-03-11T14:21:00;0.00;;;0.00;;
17670;SDS011;8954;48.694;8.940;2023-03-11T14:23:32;0.00;;;0.00;;
17670;SDS011;8954;48.694;8.940;2023-03-11T14:26:06;0.00;;;0.00;;
17670;SDS011;8954;48.694;8.940;2023-03-11T14:28:36;0.10;;;0.10;;
17670;SDS011;8954;48.694;8.940;2023-03-11T14:31:05;0.00;;;0.00;;
17670;SDS011;8954;48.694;8.940;2023-03-11T14:33:30;0.00;;;0.00;;
17670;SDS011;8954;48.694;8.940;2023-03-11T14:36:03;0.07;;;0.07;;
17670;SDS011;8954;48.694;8.940;2023-03-11T14:38:40;0.00;;;0.00;;
17670;SDS011;8954;48.694;8.940;2023-03-11T14:41:09;0.00;;;0.00;;
17670;SDS011;8954;48.694;8.940;2023-03-11T14:43:40;0.00;;;0.00;;
17670;SDS011;8954;48.694;8.940;2023-03-11T14:46:10;0.00;;;0.00;;
17670;SDS011;8954;48.694;8.940;2023-03-11T14:48:42;0.00;;;0.00;;
17670;SDS011;8954;48.694;8.940;2023-03-11T14:51:11;0.00;;;0.00;;
17670;SDS011;8954;48.694;8.940;2023-03-11T14:53:42;0.00;;;0.00;;
17670;SDS011;8954;48.694;8.940;2023-03-11T14:56:20;0.00;;;0.00;;
17670;SDS011;8954;48.694;8.940;2023-03-11T14:59:00;0.10;;;0.10;;
17670;SDS011;8954;48.694;8.940;2023-03-11T15:01:37;0.10;;;0.10;;
17670;SDS011;8954;48.694;8.940;2023-03-11T15:04:11;0.20;;;0.13;;
17670;SDS011;8954;48.694;8.940;2023-03-11T15:07:13;0.10;;;0.10;;
17670;SDS011;8954;48.694;8.940;2023-03-11T15:09:40;0.00;;;0.00;;
17670;SDS011;8954;48.694;8.940;2023-03-11T15:12:06;0.20;;;0.10;;
17670;SDS011;8954;48.694;8.940;2023-03-11T15:14:52;0.13;;;0.03;;
17670;SDS011;8954;48.694;8.940;2023-03-11T15:17:22;0.00;;;0.00;;
17670;SDS011;8954;48.694;8.940;2023-03-11T15:19:53;0.00;;;0.00;;
17670;SDS011;8954;48.694;8.940;2023-03-11T15:24:57;0.03;;;0.03;;
17670;SDS011;8954;48.694;8.940;2023-03-11T15:27:35;0.20;;;0.20;;
17670;SDS011;8954;48.694;8.940;2023-03-11T15:30:03;0.10;;;0.10;;
17670;SDS011;8954;48.694;8.940;2023-03-11T15:32:41;0.30;;;0.27;;
17670;SDS011;8954;48.694;8.940;2023-03-11T15:37:35;0.10;;;0.10;;
17670;SDS011;8954;48.694;8.940;2023-03-11T15:40:22;0.30;;;0.20;;
17670;SDS011;8954;48.694;8.940;2023-03-11T15:43:11;0.73;;;0.20;;
17670;SDS011;8954;48.694;8.940;2023-03-11T15:45:47;0.30;;;0.20;;
17670;SDS011;8954;48.694;8.940;2023-03-11T15:48:14;0.57;;;0.33;;
17670;SDS011;8954;48.694;8.940;2023-03-11T15:50:52;0.20;;;0.20;;
17670;SDS011;8954;48.694;8.940;2023-03-11T15:53:20;0.27;;;0.20;;
17670;SDS011;8954;48.694;8.940;2023-03-11T15:55:47;0.10;;;0.10;;
17670;SDS011;8954;48.694;8.940;2023-03-11T15:58:14;0.30;;;0.20;;
17670;SDS011;8954;48.694;8.940;2023-03-11T16:00:45;0.20;;;0.20;;
17670;SDS011;8954;48.694;8.940;2023-03-11T16:03:15;0.10;;;0.10;;
17670;SDS011;8954;48.694;8.940;2023-03-11T16:05:41;0.30;;;0.20;;
17670;SDS011;8954;48.694;8.940;2023-03-11T16:08:07;0.40;;;0.40;;
17670;SDS011;8954;48.694;8.940;2023-03-11T16:10:33;1.30;;;0.33;;
17670;SDS011;8954;48.694;8.940;2023-03-11T16:12:59;0.40;;;0.30;;
17670;SDS011;8954;48.694;8.940;2023-03-11T16:15:29;0.30;;;0.30;;
17670;SDS011;8954;48.694;8.940;2023-03-11T16:18:01;0.57;;;0.20;;
17670;SDS011;8954;48.694;8.940;2023-03-11T16:20:30;1.03;;;0.30;;
17670;SDS011;8954;48.694;8.940;2023-03-11T16:23:00;0.30;;;0.30;;
17670;SDS011;8954;48.694;8.940;2023-03-11T16:25:28;1.07;;;0.43;;
17670;SDS011;8954;48.694;8.940;2023-03-11T16:27:56;0.37;;;0.37;;
